Terminal Aerodrome Forecast
Issued by NWS

Home | Current Version | Previous Version | Text Only | Print | Product List | Glossary On
Versions: 1 2 3 4 5 6 7 8 9 10 11 12 13 14 15 16 17 18 19 20 21 22 23 24 25 26 27
000
FTUS43 KAPX 211800 AAA
TAFMBL
TAF AMD
KMBL 211859Z 2119/2218 35012G18KT P6SM FEW035
     FM212100 01007KT P6SM SKC
     FM220000 VRB03KT P6SM SKC
     FM220400 00000KT P6SM SKC
     FM221500 10003KT P6SM SKC
      AMD LTD TO CLD VIS AND WIND=

USA.gov is the U.S. government's official web portal to all federal, state and local government web resources and services.